Time;durP1;ratioP1;P1;durP2;ratioP2;P2;SDS_P1;SDS_P2;PMS_P1;PMS_P2;Temp;Humidity;BMP_temperature;BMP_pressure;BME280_temperature;BME280_humidity;BME280_pressure;Samples;Min_cycle;Max_cycle;Signal;HPM_P1;HPM_P2
2022/01/20 00:01:21;;;;;;;6.82;3.40;;;;;;;;;;4946039;29;20134;-62
2022/01/20 00:03:47;;;;;;;6.88;3.10;;;;;;;;;;4946051;29;20464;-61
2022/01/20 00:09:24;;;;;;;5.95;3.17;;;;;;;;;;4945004;29;20046;-62
2022/01/20 00:26:03;;;;;;;5.50;2.50;;;;;;;;;;4946328;29;20058;-63
2022/01/20 00:28:41;;;;;;;4.32;2.65;;;;;;;;;;4949075;29;20078;-62
2022/01/20 00:31:25;;;;;;;5.97;3.05;;;;;;;;;;4945477;29;20039;-62
2022/01/20 00:33:56;;;;;;;5.65;2.78;;;;;;;;;;4939321;29;20061;-62
2022/01/20 00:39:07;;;;;;;4.75;2.50;;;;;;;;;;4944678;29;20063;-61
2022/01/20 00:41:35;;;;;;;4.60;2.45;;;;;;;;;;4943016;29;20449;-61
2022/01/20 00:44:01;;;;;;;5.75;3.55;;;;;;;;;;4946364;29;20135;-61
2022/01/20 00:46:28;;;;;;;6.13;3.35;;;;;;;;;;4946925;29;20233;-61
2022/01/20 00:49:01;;;;;;;5.63;2.70;;;;;;;;;;4944839;29;20067;-62
2022/01/20 00:51:27;;;;;;;5.65;2.65;;;;;;;;;;4946995;29;20142;-62
2022/01/20 00:53:54;;;;;;;4.80;2.50;;;;;;;;;;4944424;29;20480;-62
2022/01/20 00:56:21;;;;;;;5.10;2.90;;;;;;;;;;4944623;29;20059;-62
2022/01/20 00:58:49;;;;;;;4.68;2.58;;;;;;;;;;4946178;29;20130;-62
2022/01/20 01:01:15;;;;;;;5.72;3.47;;;;;;;;;;4944229;29;20040;-62
2022/01/20 01:03:42;;;;;;;6.22;2.90;;;;;;;;;;4943134;29;20177;-63
2022/01/20 01:06:20;;;;;;;6.10;3.30;;;;;;;;;;4946729;29;20052;-61
2022/01/20 01:08:46;;;;;;;5.60;2.80;;;;;;;;;;4942440;29;20054;-63
2022/01/20 01:11:13;;;;;;;5.63;2.95;;;;;;;;;;4942423;29;20079;-62
2022/01/20 01:13:40;;;;;;;7.18;2.80;;;;;;;;;;4926233;29;20043;-62
2022/01/20 01:16:10;;;;;;;8.90;2.90;;;;;;;;;;4947287;29;20095;-61
2022/01/20 01:21:29;;;;;;;5.03;2.28;;;;;;;;;;4946832;29;20053;-60
2022/01/20 01:23:56;;;;;;;7.07;3.37;;;;;;;;;;4941830;29;20051;-62
2022/01/20 01:26:26;;;;;;;5.50;2.88;;;;;;;;;;4945511;29;20398;-62
2022/01/20 01:28:56;;;;;;;5.00;2.72;;;;;;;;;;4945424;29;20102;-63
2022/01/20 01:31:37;;;;;;;6.60;3.20;;;;;;;;;;4945983;29;20130;-62
2022/01/20 01:34:07;;;;;;;4.90;2.47;;;;;;;;;;4925020;29;20080;-62
2022/01/20 01:36:47;;;;;;;4.53;2.58;;;;;;;;;;4946106;29;20071;-63
2022/01/20 01:39:14;;;;;;;5.78;3.10;;;;;;;;;;4946937;29;20550;-62
2022/01/20 01:41:41;;;;;;;7.05;3.05;;;;;;;;;;4948354;29;20800;-62
2022/01/20 01:44:09;;;;;;;4.70;2.85;;;;;;;;;;4947779;29;20039;-62
2022/01/20 01:46:38;;;;;;;5.88;3.05;;;;;;;;;;4950514;29;20047;-62
2022/01/20 01:49:06;;;;;;;7.07;2.45;;;;;;;;;;4942994;29;20074;-62
2022/01/20 01:51:32;;;;;;;6.35;2.80;;;;;;;;;;4947257;29;20236;-63
2022/01/20 01:53:59;;;;;;;7.22;2.88;;;;;;;;;;4950256;29;20130;-62
2022/01/20 01:56:25;;;;;;;5.68;2.90;;;;;;;;;;4948098;29;20139;-62
2022/01/20 01:58:53;;;;;;;4.72;2.72;;;;;;;;;;4946889;29;20143;-63
2022/01/20 02:01:20;;;;;;;5.47;2.88;;;;;;;;;;4948939;29;20098;-62
2022/01/20 02:03:57;;;;;;;4.93;2.53;;;;;;;;;;4943106;29;20071;-62
2022/01/20 02:06:43;;;;;;;4.55;2.42;;;;;;;;;;4950658;29;20555;-62
2022/01/20 02:09:28;;;;;;;5.90;2.85;;;;;;;;;;4947795;29;20043;-61
2022/01/20 02:20:13;;;;;;;5.40;2.83;;;;;;;;;;4947594;29;20046;-61
2022/01/20 02:22:40;;;;;;;6.50;3.00;;;;;;;;;;4943282;29;20396;-62
2022/01/20 02:25:18;;;;;;;7.60;3.15;;;;;;;;;;4941693;29;20071;-62
2022/01/20 02:27:44;;;;;;;5.55;3.08;;;;;;;;;;4945251;29;20856;-62
2022/01/20 02:30:12;;;;;;;6.95;3.20;;;;;;;;;;4945297;29;20150;-62
2022/01/20 02:32:38;;;;;;;6.13;3.17;;;;;;;;;;4948787;29;21127;-62
2022/01/20 02:35:09;;;;;;;5.57;3.17;;;;;;;;;;4945546;29;20063;-62
2022/01/20 02:37:38;;;;;;;5.65;2.92;;;;;;;;;;4946398;29;20126;-62
2022/01/20 02:40:30;;;;;;;7.55;3.63;;;;;;;;;;4948381;29;20047;-62
2022/01/20 02:45:41;;;;;;;6.07;2.85;;;;;;;;;;4944846;29;20078;-62
2022/01/20 02:48:07;;;;;;;7.22;3.40;;;;;;;;;;4948218;28;20110;-62
2022/01/20 02:50:34;;;;;;;7.45;3.60;;;;;;;;;;4944601;29;20087;-62
2022/01/20 02:53:02;;;;;;;6.00;3.25;;;;;;;;;;4947801;29;20127;-63
2022/01/20 02:55:28;;;;;;;5.72;3.10;;;;;;;;;;4946570;29;20078;-62
2022/01/20 02:57:55;;;;;;;5.22;3.33;;;;;;;;;;4947939;29;20127;-63
2022/01/20 03:00:21;;;;;;;5.78;3.40;;;;;;;;;;4946608;29;20051;-62
2022/01/20 03:02:49;;;;;;;5.80;3.45;;;;;;;;;;4927876;29;20086;-62
2022/01/20 03:05:16;;;;;;;6.00;3.28;;;;;;;;;;4944663;29;20388;-63
2022/01/20 03:07:43;;;;;;;8.48;3.88;;;;;;;;;;4947660;29;20453;-62
2022/01/20 03:10:11;;;;;;;6.68;3.50;;;;;;;;;;4944624;29;21418;-62
2022/01/20 03:12:37;;;;;;;6.18;3.53;;;;;;;;;;4944243;29;20135;-62
2022/01/20 03:15:05;;;;;;;7.45;3.55;;;;;;;;;;4943653;29;20071;-61
2022/01/20 03:17:32;;;;;;;7.22;3.65;;;;;;;;;;4944669;29;20264;-62
2022/01/20 03:19:59;;;;;;;6.93;4.00;;;;;;;;;;4944732;29;20104;-62
2022/01/20 03:22:26;;;;;;;8.52;3.85;;;;;;;;;;4947713;29;20131;-61
2022/01/20 03:24:53;;;;;;;5.75;3.40;;;;;;;;;;4948255;29;20158;-63
2022/01/20 03:27:21;;;;;;;7.55;3.97;;;;;;;;;;4939503;29;20050;-62
2022/01/20 03:29:47;;;;;;;8.95;3.92;;;;;;;;;;4945063;29;20131;-63
2022/01/20 03:32:14;;;;;;;6.45;3.47;;;;;;;;;;4945427;29;20134;-63
2022/01/20 03:34:40;;;;;;;6.93;3.58;;;;;;;;;;4947847;29;20138;-63
2022/01/20 03:37:07;;;;;;;7.90;4.00;;;;;;;;;;4948728;29;20134;-62
2022/01/20 03:39:34;;;;;;;7.13;4.00;;;;;;;;;;4944991;29;20531;-63
2022/01/20 03:42:01;;;;;;;8.50;3.72;;;;;;;;;;4947688;29;20134;-63
2022/01/20 03:44:28;;;;;;;7.53;4.10;;;;;;;;;;4941437;29;20156;-62
2022/01/20 03:46:57;;;;;;;7.30;3.83;;;;;;;;;;4946150;29;20134;-62
2022/01/20 03:49:29;;;;;;;8.10;3.70;;;;;;;;;;4947255;29;20040;-62
2022/01/20 03:51:56;;;;;;;8.23;4.53;;;;;;;;;;4947580;29;20130;-63
2022/01/20 03:54:22;;;;;;;10.90;4.25;;;;;;;;;;4945414;29;20044;-62
2022/01/20 03:56:49;;;;;;;9.50;4.25;;;;;;;;;;4949455;29;20078;-63
2022/01/20 03:59:15;;;;;;;9.45;4.43;;;;;;;;;;4944525;29;20129;-62
2022/01/20 04:01:43;;;;;;;8.77;4.72;;;;;;;;;;4945462;29;20126;-63
2022/01/20 04:04:10;;;;;;;8.00;4.25;;;;;;;;;;4945783;29;20475;-63
2022/01/20 04:06:36;;;;;;;7.97;4.13;;;;;;;;;;4931090;29;20548;-62
2022/01/20 04:09:04;;;;;;;8.48;4.53;;;;;;;;;;4947734;29;20125;-62
2022/01/20 04:11:31;;;;;;;7.63;4.30;;;;;;;;;;4941385;29;21831;-62
2022/01/20 04:13:59;;;;;;;9.63;5.07;;;;;;;;;;4940364;29;20054;-62
2022/01/20 04:16:34;;;;;;;8.07;4.63;;;;;;;;;;4946441;29;20413;-62
2022/01/20 04:19:07;;;;;;;7.10;3.75;;;;;;;;;;4945027;29;20046;-63
2022/01/20 04:21:35;;;;;;;7.22;3.22;;;;;;;;;;4945911;29;20035;-62
2022/01/20 04:24:03;;;;;;;8.00;4.38;;;;;;;;;;4944724;29;20094;-63
2022/01/20 04:26:30;;;;;;;6.38;3.95;;;;;;;;;;4940748;29;20051;-63
2022/01/20 04:28:57;;;;;;;8.70;3.83;;;;;;;;;;4940910;29;20172;-63
2022/01/20 04:31:24;;;;;;;6.82;3.85;;;;;;;;;;4938702;29;20054;-63
2022/01/20 04:33:50;;;;;;;7.75;4.25;;;;;;;;;;4935883;29;20572;-62
2022/01/20 04:36:18;;;;;;;8.60;4.38;;;;;;;;;;4942658;29;20138;-62
2022/01/20 04:38:45;;;;;;;8.57;4.03;;;;;;;;;;4945942;29;20131;-62
2022/01/20 04:41:12;;;;;;;8.07;4.63;;;;;;;;;;4945281;29;20059;-62
2022/01/20 04:43:38;;;;;;;9.48;4.25;;;;;;;;;;4944563;29;20480;-63
2022/01/20 04:46:11;;;;;;;8.52;4.47;;;;;;;;;;4946604;29;20134;-63
2022/01/20 04:48:49;;;;;;;7.65;4.07;;;;;;;;;;4946652;28;20059;-63
2022/01/20 04:57:16;;;;;;;7.22;4.55;;;;;;;;;;4943003;29;20050;-63
2022/01/20 04:59:43;;;;;;;8.35;4.78;;;;;;;;;;4945748;29;20134;-63
2022/01/20 05:02:09;;;;;;;8.98;4.53;;;;;;;;;;4946098;29;20043;-63
2022/01/20 05:04:36;;;;;;;10.55;4.93;;;;;;;;;;4946157;29;20138;-63
2022/01/20 05:07:04;;;;;;;7.82;4.65;;;;;;;;;;4944768;28;20617;-63
2022/01/20 05:09:32;;;;;;;11.05;5.68;;;;;;;;;;4943748;29;20059;-63
2022/01/20 05:12:01;;;;;;;8.70;5.18;;;;;;;;;;4938950;28;20040;-63
2022/01/20 05:14:28;;;;;;;8.43;4.80;;;;;;;;;;4947700;29;20059;-61
2022/01/20 05:16:55;;;;;;;9.48;4.15;;;;;;;;;;4940589;29;20466;-62
2022/01/20 05:19:22;;;;;;;7.88;4.38;;;;;;;;;;4938091;29;20051;-63
2022/01/20 05:21:49;;;;;;;10.45;5.00;;;;;;;;;;4941359;29;20057;-62
2022/01/20 05:24:15;;;;;;;10.38;4.75;;;;;;;;;;4941708;29;20588;-63
2022/01/20 05:26:43;;;;;;;10.65;5.70;;;;;;;;;;4941277;29;20057;-63
2022/01/20 05:29:10;;;;;;;9.95;4.32;;;;;;;;;;4943274;29;20146;-63
2022/01/20 05:31:36;;;;;;;7.68;4.35;;;;;;;;;;4939161;29;20601;-63
2022/01/20 05:34:03;;;;;;;9.48;4.57;;;;;;;;;;4938614;29;20126;-63
2022/01/20 05:36:29;;;;;;;8.32;4.90;;;;;;;;;;4940156;29;20332;-61
2022/01/20 05:38:56;;;;;;;11.50;5.18;;;;;;;;;;4925001;29;21167;-62
2022/01/20 05:41:29;;;;;;;10.10;4.72;;;;;;;;;;4939737;29;20052;-63
2022/01/20 05:43:57;;;;;;;9.65;4.55;;;;;;;;;;4938615;29;20047;-63
2022/01/20 05:46:27;;;;;;;8.55;4.60;;;;;;;;;;4938017;29;20052;-63
2022/01/20 05:48:57;;;;;;;9.10;4.05;;;;;;;;;;4937672;29;20047;-63
2022/01/20 05:51:23;;;;;;;7.78;4.40;;;;;;;;;;4924414;29;20102;-63
2022/01/20 05:53:50;;;;;;;8.70;4.30;;;;;;;;;;4945369;29;20129;-62
2022/01/20 05:56:16;;;;;;;6.63;4.25;;;;;;;;;;4941389;29;20496;-63
2022/01/20 05:58:43;;;;;;;7.47;4.10;;;;;;;;;;4943405;29;20130;-63
2022/01/20 06:01:11;;;;;;;8.10;3.97;;;;;;;;;;4942798;29;20122;-61
2022/01/20 06:03:37;;;;;;;8.80;4.95;;;;;;;;;;4944343;29;20147;-60
2022/01/20 06:06:04;;;;;;;8.93;5.00;;;;;;;;;;4947319;29;20114;-61
2022/01/20 06:08:31;;;;;;;6.75;4.00;;;;;;;;;;4944910;29;20083;-62
2022/01/20 06:10:58;;;;;;;7.82;4.07;;;;;;;;;;4938760;29;20122;-62
2022/01/20 06:13:25;;;;;;;10.00;5.95;;;;;;;;;;4932814;29;20154;-62
2022/01/20 06:15:51;;;;;;;10.23;6.38;;;;;;;;;;4944515;29;20130;-62
2022/01/20 06:18:19;;;;;;;8.02;4.75;;;;;;;;;;4943328;29;20051;-63
2022/01/20 06:20:46;;;;;;;8.75;5.25;;;;;;;;;;4944212;29;20527;-62
2022/01/20 06:23:13;;;;;;;11.85;6.47;;;;;;;;;;4937406;28;20590;-62
2022/01/20 06:25:41;;;;;;;11.25;6.63;;;;;;;;;;4938935;29;20079;-62
2022/01/20 06:28:08;;;;;;;12.65;7.00;;;;;;;;;;4940282;29;20468;-63
2022/01/20 06:30:35;;;;;;;11.45;5.80;;;;;;;;;;4947419;29;20138;-61
2022/01/20 06:33:02;;;;;;;9.20;5.28;;;;;;;;;;4942373;29;20078;-62
2022/01/20 06:35:30;;;;;;;8.57;4.75;;;;;;;;;;4941528;29;20341;-61
2022/01/20 06:37:57;;;;;;;10.13;5.57;;;;;;;;;;4943637;29;20143;-62
2022/01/20 06:47:07;;;;;;;8.05;4.40;;;;;;;;;;4945492;29;20049;-62
2022/01/20 06:49:34;;;;;;;7.07;4.10;;;;;;;;;;4921566;29;20079;-63
2022/01/20 06:52:02;;;;;;;7.82;4.50;;;;;;;;;;4938365;29;20135;-63
2022/01/20 06:54:28;;;;;;;7.45;4.15;;;;;;;;;;4934334;29;20168;-62
2022/01/20 06:56:55;;;;;;;10.07;4.00;;;;;;;;;;4937820;29;20153;-62
2022/01/20 06:59:22;;;;;;;8.23;4.05;;;;;;;;;;4942310;29;20116;-61
2022/01/20 07:01:49;;;;;;;9.88;4.43;;;;;;;;;;4939826;29;20071;-63
2022/01/20 07:04:16;;;;;;;7.47;4.10;;;;;;;;;;4937524;29;20047;-62
2022/01/20 07:06:43;;;;;;;9.80;4.28;;;;;;;;;;4933815;29;20094;-62
2022/01/20 07:09:11;;;;;;;7.05;3.95;;;;;;;;;;4941157;29;20134;-62
2022/01/20 07:11:38;;;;;;;6.95;3.78;;;;;;;;;;4943205;29;20043;-63
2022/01/20 07:14:04;;;;;;;6.53;3.90;;;;;;;;;;4943175;29;20066;-61
2022/01/20 07:16:31;;;;;;;6.60;4.13;;;;;;;;;;4937695;29;20125;-60
2022/01/20 07:18:58;;;;;;;7.35;3.40;;;;;;;;;;4945700;29;20074;-62
2022/01/20 07:21:25;;;;;;;7.07;4.28;;;;;;;;;;4937752;29;20067;-62
2022/01/20 07:23:51;;;;;;;9.13;4.57;;;;;;;;;;4940666;29;20134;-63
2022/01/20 07:26:19;;;;;;;12.02;6.43;;;;;;;;;;4946137;29;20114;-61
2022/01/20 07:28:46;;;;;;;10.50;4.43;;;;;;;;;;4940168;29;20138;-60
2022/01/20 07:31:12;;;;;;;6.38;3.67;;;;;;;;;;4940714;29;20074;-62
2022/01/20 07:33:39;;;;;;;15.57;4.13;;;;;;;;;;4939811;29;20131;-62
2022/01/20 07:36:06;;;;;;;7.10;4.20;;;;;;;;;;4936974;29;20048;-62
2022/01/20 07:38:32;;;;;;;8.85;4.82;;;;;;;;;;4943231;29;20075;-63
2022/01/20 07:40:59;;;;;;;9.05;4.40;;;;;;;;;;4937090;29;20071;-60
2022/01/20 07:43:27;;;;;;;6.53;3.90;;;;;;;;;;4932597;29;20511;-63
2022/01/20 07:45:53;;;;;;;5.88;3.78;;;;;;;;;;4941378;29;20143;-62
2022/01/20 07:48:20;;;;;;;5.68;3.53;;;;;;;;;;4934000;28;20047;-62
2022/01/20 07:50:46;;;;;;;5.22;3.58;;;;;;;;;;4940861;29;20093;-62
2022/01/20 07:53:13;;;;;;;7.05;3.65;;;;;;;;;;4936210;29;20166;-62
2022/01/20 07:55:39;;;;;;;7.95;3.65;;;;;;;;;;4936334;29;20078;-62
2022/01/20 07:58:07;;;;;;;6.97;3.95;;;;;;;;;;4945278;29;20134;-62
2022/01/20 08:00:35;;;;;;;6.82;3.95;;;;;;;;;;4938658;29;20052;-62
2022/01/20 08:03:01;;;;;;;7.50;5.03;;;;;;;;;;4939293;29;20616;-62
2022/01/20 08:05:28;;;;;;;6.40;3.97;;;;;;;;;;4937504;29;20067;-63
2022/01/20 08:07:54;;;;;;;7.82;3.90;;;;;;;;;;4933891;29;20465;-62
2022/01/20 08:10:21;;;;;;;6.50;3.90;;;;;;;;;;4942502;29;20520;-61
2022/01/20 08:12:48;;;;;;;5.70;3.42;;;;;;;;;;4934551;29;20055;-62
2022/01/20 08:15:15;;;;;;;6.60;3.80;;;;;;;;;;4936011;29;20126;-62
2022/01/20 08:17:44;;;;;;;6.13;3.78;;;;;;;;;;4938753;29;20125;-62
2022/01/20 08:20:12;;;;;;;6.25;3.58;;;;;;;;;;4937727;29;20067;-63
2022/01/20 08:22:39;;;;;;;6.15;3.65;;;;;;;;;;4939208;29;20082;-60
2022/01/20 08:25:08;;;;;;;6.47;3.50;;;;;;;;;;4937530;29;20146;-62
2022/01/20 08:27:36;;;;;;;6.45;3.67;;;;;;;;;;4935442;29;20063;-62
2022/01/20 08:30:04;;;;;;;6.53;3.53;;;;;;;;;;4940684;29;20138;-60
2022/01/20 08:32:33;;;;;;;7.35;3.67;;;;;;;;;;4935942;29;20571;-61
2022/01/20 08:35:05;;;;;;;5.93;3.38;;;;;;;;;;4943327;29;20416;-62
2022/01/20 08:37:33;;;;;;;6.47;3.80;;;;;;;;;;4936399;29;20676;-61
2022/01/20 08:40:00;;;;;;;5.55;3.58;;;;;;;;;;4916953;29;20131;-61
2022/01/20 08:42:27;;;;;;;6.80;3.90;;;;;;;;;;4916950;29;20596;-62
2022/01/20 08:44:53;;;;;;;6.15;3.50;;;;;;;;;;4935160;29;20083;-60
2022/01/20 08:47:21;;;;;;;5.68;3.28;;;;;;;;;;4946686;29;20521;-62
2022/01/20 08:49:48;;;;;;;6.45;3.90;;;;;;;;;;4930226;29;20054;-62
2022/01/20 08:52:18;;;;;;;5.40;3.17;;;;;;;;;;4940214;29;20043;-62
2022/01/20 08:54:47;;;;;;;6.47;3.72;;;;;;;;;;4945101;29;20091;-62
2022/01/20 08:57:13;;;;;;;5.70;3.35;;;;;;;;;;4945705;29;20057;-59
2022/01/20 08:59:42;;;;;;;6.13;3.63;;;;;;;;;;4945382;29;20078;-62
2022/01/20 09:02:09;;;;;;;5.60;3.33;;;;;;;;;;4941516;29;20047;-62
2022/01/20 09:04:35;;;;;;;6.97;3.63;;;;;;;;;;4938296;29;20472;-62
2022/01/20 09:07:02;;;;;;;12.35;3.88;;;;;;;;;;4941536;29;20147;-62
2022/01/20 09:09:30;;;;;;;6.35;3.78;;;;;;;;;;4938410;29;20067;-62
2022/01/20 09:12:15;;;;;;;7.47;3.72;;;;;;;;;;4940356;29;20181;-62
2022/01/20 09:17:28;;;;;;;8.15;4.10;;;;;;;;;;4937769;29;20179;-62
2022/01/20 09:19:54;;;;;;;5.57;3.08;;;;;;;;;;4939491;29;20092;-62
2022/01/20 09:22:21;;;;;;;8.50;4.55;;;;;;;;;;4934415;29;20505;-61
2022/01/20 09:24:49;;;;;;;6.40;3.13;;;;;;;;;;4941931;29;20043;-62
2022/01/20 09:27:16;;;;;;;8.73;4.43;;;;;;;;;;4943748;29;20143;-61
2022/01/20 09:29:44;;;;;;;8.40;4.40;;;;;;;;;;4944725;29;20472;-61
2022/01/20 09:32:12;;;;;;;6.05;3.55;;;;;;;;;;4941193;29;20055;-62
2022/01/20 09:34:39;;;;;;;6.97;3.70;;;;;;;;;;4937723;29;20139;-62
2022/01/20 09:37:06;;;;;;;7.53;3.92;;;;;;;;;;4946823;29;20126;-61
2022/01/20 09:39:33;;;;;;;6.07;3.55;;;;;;;;;;4936982;29;20139;-62
2022/01/20 09:42:01;;;;;;;7.00;3.60;;;;;;;;;;4940011;29;20086;-62
2022/01/20 09:44:28;;;;;;;6.82;3.70;;;;;;;;;;4935592;29;20172;-60
2022/01/20 09:46:55;;;;;;;8.27;3.50;;;;;;;;;;4943266;29;20079;-62
2022/01/20 09:49:21;;;;;;;6.38;3.45;;;;;;;;;;4943748;29;20079;-60
2022/01/20 09:51:48;;;;;;;6.82;3.15;;;;;;;;;;4939368;29;20083;-61
2022/01/20 09:54:14;;;;;;;6.95;3.72;;;;;;;;;;4937398;29;20114;-62
2022/01/20 09:56:44;;;;;;;10.55;4.63;;;;;;;;;;4945948;29;20123;-62
2022/01/20 09:59:12;;;;;;;7.88;4.20;;;;;;;;;;4937070;29;20048;-61
2022/01/20 10:01:41;;;;;;;7.28;3.47;;;;;;;;;;4940734;29;20466;-61
2022/01/20 10:04:19;;;;;;;8.48;3.83;;;;;;;;;;4937395;29;20079;-60
2022/01/20 10:06:52;;;;;;;7.68;4.47;;;;;;;;;;4939421;29;20082;-61
2022/01/20 10:09:28;;;;;;;7.72;4.53;;;;;;;;;;4940286;29;20113;-62
2022/01/20 10:11:54;;;;;;;7.38;4.22;;;;;;;;;;4941996;29;20051;-61
2022/01/20 10:14:22;;;;;;;6.47;3.70;;;;;;;;;;4938282;29;20106;-61
2022/01/20 10:16:49;;;;;;;7.25;3.70;;;;;;;;;;4943187;29;20203;-60
2022/01/20 10:19:23;;;;;;;7.78;3.85;;;;;;;;;;4939164;29;20074;-62
2022/01/20 10:21:50;;;;;;;6.00;3.28;;;;;;;;;;4941578;29;20122;-62
2022/01/20 10:24:16;;;;;;;8.98;3.70;;;;;;;;;;4941822;29;20075;-59
2022/01/20 10:26:43;;;;;;;4.97;2.70;;;;;;;;;;4942179;29;20047;-62
2022/01/20 10:29:12;;;;;;;6.53;3.63;;;;;;;;;;4938548;29;20041;-62
2022/01/20 10:31:41;;;;;;;6.45;3.80;;;;;;;;;;4942894;29;20070;-62
2022/01/20 10:34:18;;;;;;;6.55;3.83;;;;;;;;;;4936640;29;20457;-62
2022/01/20 10:36:50;;;;;;;;;;;;;;;;;;4945379;29;20500;-58
2022/01/20 10:39:16;;;;;;;6.20;3.50;;;;;;;;;;4941101;29;19933;-62
2022/01/20 10:41:43;;;;;;;4.95;2.70;;;;;;;;;;4938856;29;20095;-62
2022/01/20 10:44:14;;;;;;;6.70;3.25;;;;;;;;;;4935872;29;20043;-59
2022/01/20 10:47:00;;;;;;;6.80;3.15;;;;;;;;;;4936920;29;20036;-62
2022/01/20 10:49:32;;;;;;;4.55;2.50;;;;;;;;;;4933261;29;20187;-62
2022/01/20 10:52:02;;;;;;;4.53;2.40;;;;;;;;;;4935833;29;20456;-63
2022/01/20 10:54:36;;;;;;;7.43;3.25;;;;;;;;;;4937122;29;20588;-62
2022/01/20 10:57:07;;;;;;;5.35;2.55;;;;;;;;;;4939459;29;20127;-62
2022/01/20 10:59:35;;;;;;;5.22;2.22;;;;;;;;;;4933957;29;20043;-62
2022/01/20 11:02:05;;;;;;;5.95;2.58;;;;;;;;;;4938666;29;20082;-61
2022/01/20 11:04:32;;;;;;;5.05;2.40;;;;;;;;;;4937734;29;20075;-62
2022/01/20 11:07:02;;;;;;;5.03;2.55;;;;;;;;;;4921714;29;20083;-62
2022/01/20 11:09:31;;;;;;;5.75;2.33;;;;;;;;;;4938649;29;20413;-62
2022/01/20 11:11:58;;;;;;;8.13;2.53;;;;;;;;;;4940918;29;20585;-62
2022/01/20 11:14:25;;;;;;;7.53;3.35;;;;;;;;;;4941684;29;20557;-61
2022/01/20 11:16:51;;;;;;;5.50;1.95;;;;;;;;;;4935394;29;20111;-62
2022/01/20 11:19:22;;;;;;;8.00;2.35;;;;;;;;;;4936465;29;20079;-62
2022/01/20 11:21:49;;;;;;;6.50;2.35;;;;;;;;;;4941864;29;20090;-62
2022/01/20 11:24:20;;;;;;;6.20;2.20;;;;;;;;;;4941521;29;20562;-62
2022/01/20 11:26:51;;;;;;;10.43;3.13;;;;;;;;;;4938500;29;20047;-62
2022/01/20 11:29:28;;;;;;;6.47;3.15;;;;;;;;;;4937016;29;20175;-62
2022/01/20 21:31:21;;;;;;;6.87;3.00;;;;;;;;;;6243531;23;20016;-91
2022/01/20 21:33:48;;;;;;;8.95;2.70;;;;;;;;;;6272322;22;20019;-61
2022/01/20 21:36:17;;;;;;;11.05;2.95;;;;;;;;;;6271940;22;20020;-59
2022/01/20 21:38:46;;;;;;;10.35;3.00;;;;;;;;;;6272864;22;20020;-61
2022/01/20 21:41:15;;;;;;;7.65;3.00;;;;;;;;;;6273120;22;20032;-59
2022/01/20 21:43:42;;;;;;;5.70;2.83;;;;;;;;;;6270713;22;20107;-62
2022/01/20 21:46:09;;;;;;;7.60;2.72;;;;;;;;;;6272447;22;20027;-61
2022/01/20 21:48:38;;;;;;;5.82;2.83;;;;;;;;;;6273136;22;20077;-62
2022/01/20 21:51:07;;;;;;;6.55;2.70;;;;;;;;;;6273261;22;20023;-59
2022/01/20 21:53:34;;;;;;;8.00;2.45;;;;;;;;;;6272340;22;20197;-61
2022/01/20 21:56:01;;;;;;;9.05;3.03;;;;;;;;;;6272250;22;20344;-60
2022/01/20 21:58:27;;;;;;;8.40;2.83;;;;;;;;;;6272647;22;20058;-61
2022/01/20 22:00:54;;;;;;;8.05;2.83;;;;;;;;;;6272238;22;20027;-61
2022/01/20 22:03:21;;;;;;;9.00;2.25;;;;;;;;;;6272638;22;20077;-61
2022/01/20 22:05:49;;;;;;;5.82;2.50;;;;;;;;;;6270103;22;20023;-61
2022/01/20 22:08:23;;;;;;;11.73;3.05;;;;;;;;;;6272102;22;20340;-59
2022/01/20 22:10:53;;;;;;;6.45;2.75;;;;;;;;;;6272403;22;20019;-59
2022/01/20 22:13:23;;;;;;;7.63;2.53;;;;;;;;;;6271875;22;20030;-61
2022/01/20 22:15:51;;;;;;;7.85;2.33;;;;;;;;;;6271486;22;20024;-59
2022/01/20 22:18:18;;;;;;;8.55;3.25;;;;;;;;;;6271306;22;20031;-61
2022/01/20 22:20:45;;;;;;;6.30;2.38;;;;;;;;;;6270936;22;20045;-61
2022/01/20 22:23:13;;;;;;;13.73;3.90;;;;;;;;;;6271657;22;20050;-60
2022/01/20 22:25:40;;;;;;;9.85;3.30;;;;;;;;;;6272582;22;20089;-61
2022/01/20 22:28:07;;;;;;;7.25;2.60;;;;;;;;;;6272530;22;20074;-60
2022/01/20 22:30:35;;;;;;;9.30;3.03;;;;;;;;;;6272897;22;20020;-61
2022/01/20 22:33:03;;;;;;;6.63;2.33;;;;;;;;;;6272245;22;20024;-61
2022/01/20 22:35:30;;;;;;;9.07;2.60;;;;;;;;;;6272650;22;20086;-61
2022/01/20 22:37:57;;;;;;;9.05;2.85;;;;;;;;;;6273143;22;20089;-61
2022/01/20 22:40:25;;;;;;;7.97;2.40;;;;;;;;;;6272354;22;20019;-61
2022/01/20 22:42:52;;;;;;;5.53;1.92;;;;;;;;;;6273318;22;20024;-61
2022/01/20 22:45:19;;;;;;;7.72;3.05;;;;;;;;;;6272876;22;20023;-61
2022/01/20 22:47:47;;;;;;;7.50;2.95;;;;;;;;;;6272453;22;20028;-60
2022/01/20 22:50:16;;;;;;;7.10;3.15;;;;;;;;;;6272503;22;20030;-61
2022/01/20 22:52:43;;;;;;;8.63;3.47;;;;;;;;;;6271691;22;20393;-61
2022/01/20 22:55:10;;;;;;;10.77;3.65;;;;;;;;;;6272482;22;20046;-60
2022/01/20 22:57:38;;;;;;;10.30;3.00;;;;;;;;;;6272550;22;20028;-61
2022/01/20 23:00:07;;;;;;;7.97;2.95;;;;;;;;;;6271352;22;20024;-61
2022/01/20 23:02:33;;;;;;;10.05;4.50;;;;;;;;;;6273102;22;20070;-61
2022/01/20 23:05:00;;;;;;;7.45;2.58;;;;;;;;;;6272095;22;20050;-61
2022/01/20 23:07:26;;;;;;;6.47;2.90;;;;;;;;;;6272047;22;20089;-61
2022/01/20 23:09:53;;;;;;;9.48;3.00;;;;;;;;;;6272630;22;20062;-59
2022/01/20 23:12:20;;;;;;;8.75;2.75;;;;;;;;;;6273267;22;20077;-61
2022/01/20 23:14:48;;;;;;;9.68;3.22;;;;;;;;;;6272200;22;20039;-61
2022/01/20 23:17:31;;;;;;;4.82;2.65;;;;;;;;;;6272497;22;20451;-61
2022/01/20 23:22:42;;;;;;;7.20;2.63;;;;;;;;;;6272277;22;20513;-61
2022/01/20 23:25:09;;;;;;;7.00;2.75;;;;;;;;;;6272509;22;20343;-61
2022/01/20 23:27:36;;;;;;;5.80;2.58;;;;;;;;;;6272559;22;20019;-61
2022/01/20 23:30:07;;;;;;;5.50;2.85;;;;;;;;;;6271739;22;20088;-61
2022/01/20 23:32:34;;;;;;;6.25;2.78;;;;;;;;;;6271711;22;20099;-59
2022/01/20 23:35:00;;;;;;;9.93;3.40;;;;;;;;;;6271614;22;20093;-60
2022/01/20 23:37:27;;;;;;;6.45;2.80;;;;;;;;;;6272351;22;20605;-61
2022/01/20 23:39:55;;;;;;;5.30;2.70;;;;;;;;;;6271566;22;20398;-61
2022/01/20 23:42:31;;;;;;;9.25;3.78;;;;;;;;;;6272193;22;20035;-61
2022/01/20 23:45:14;;;;;;;8.20;2.90;;;;;;;;;;6271293;22;20031;-61
2022/01/20 23:50:26;;;;;;;8.13;3.10;;;;;;;;;;6271234;22;20119;-61
2022/01/20 23:52:53;;;;;;;9.05;3.55;;;;;;;;;;6270281;22;20383;-61
2022/01/20 23:55:20;;;;;;;12.70;3.90;;;;;;;;;;6271700;22;20073;-61
2022/01/20 23:57:47;;;;;;;10.27;3.50;;;;;;;;;;6272035;22;20439;-60
